Time;durP1;ratioP1;P1;durP2;ratioP2;P2;SDS_P1;SDS_P2;PMS_P1;PMS_P2;Temp;Humidity;BMP_temperature;BMP_pressure;BME280_temperature;BME280_humidity;BME280_pressure;Samples;Min_cycle;Max_cycle;Signal;HPM_P1;HPM_P2
2022/12/10 00:01:52;;;;;;;2.33;1.10;;;-1.50;92.00;;;;;;6154088;23;20019;-73
2022/12/10 00:04:19;;;;;;;2.85;1.30;;;-1.40;92.00;;;;;;6151812;23;20012;-73
2022/12/10 00:06:46;;;;;;;2.47;0.90;;;-1.50;92.00;;;;;;6153513;23;20009;-73
2022/12/10 00:09:15;;;;;;;3.33;1.08;;;-1.50;92.10;;;;;;6153764;23;20024;-73
2022/12/10 00:11:42;;;;;;;3.58;1.23;;;-1.50;92.10;;;;;;6153932;23;20005;-73
2022/12/10 00:14:08;;;;;;;2.50;1.02;;;-1.50;92.10;;;;;;6152321;23;20088;-75
2022/12/10 00:16:34;;;;;;;3.58;1.45;;;-1.50;92.10;;;;;;6153537;23;20033;-73
2022/12/10 00:19:00;;;;;;;3.03;1.35;;;-1.40;92.10;;;;;;6151961;23;20096;-73
2022/12/10 00:21:30;;;;;;;3.15;1.20;;;-1.50;92.00;;;;;;6176747;23;20430;-74
2022/12/10 00:23:56;;;;;;;3.47;1.33;;;-1.50;92.10;;;;;;6153367;23;20373;-73
2022/12/10 00:26:25;;;;;;;3.53;1.20;;;-1.50;92.10;;;;;;6151706;23;20149;-73
2022/12/10 00:28:52;;;;;;;3.00;1.00;;;-1.60;92.10;;;;;;6153259;23;20033;-73
2022/12/10 00:31:21;;;;;;;3.72;1.45;;;-1.60;92.00;;;;;;6176531;23;20497;-73
2022/12/10 00:33:47;;;;;;;3.03;1.33;;;-1.60;92.10;;;;;;6153805;23;20396;-73
2022/12/10 00:36:17;;;;;;;2.42;0.90;;;-1.60;92.10;;;;;;6176409;23;20068;-73
2022/12/10 00:38:43;;;;;;;3.03;1.02;;;-1.70;92.10;;;;;;6153752;23;20097;-73
2022/12/10 00:41:10;;;;;;;3.60;1.30;;;-1.60;92.10;;;;;;6127351;23;20842;-73
2022/12/10 00:43:36;;;;;;;3.50;1.13;;;-1.60;92.10;;;;;;6153038;23;20095;-73
2022/12/10 00:46:02;;;;;;;4.05;1.50;;;-1.60;92.00;;;;;;6153200;23;20010;-73
2022/12/10 00:48:28;;;;;;;2.95;1.20;;;-1.60;92.10;;;;;;6152250;23;20005;-73
2022/12/10 00:50:58;;;;;;;2.10;1.08;;;-1.60;92.10;;;;;;6153141;23;20010;-73
2022/12/10 00:53:26;;;;;;;2.85;1.05;;;-1.60;92.10;;;;;;6176588;23;20451;-73
2022/12/10 00:55:52;;;;;;;2.47;1.15;;;-1.60;92.10;;;;;;6152300;23;20001;-73
2022/12/10 00:58:18;;;;;;;2.30;1.20;;;-1.60;92.10;;;;;;6152459;23;20005;-73
2022/12/10 01:00:44;;;;;;;3.00;1.20;;;-1.60;92.10;;;;;;6153457;23;20307;-73
2022/12/10 01:03:09;;;;;;;3.17;1.15;;;-1.60;92.10;;;;;;6151467;23;20072;-73
2022/12/10 01:05:35;;;;;;;3.22;1.30;;;-1.50;92.10;;;;;;6152936;23;20034;-73
2022/12/10 01:08:01;;;;;;;3.05;1.25;;;-1.60;92.00;;;;;;6151373;23;20443;-73
2022/12/10 01:10:26;;;;;;;3.45;1.45;;;-1.50;92.00;;;;;;6153549;23;20002;-73
2022/12/10 01:12:52;;;;;;;3.58;1.40;;;-1.50;92.00;;;;;;6151518;23;20430;-74
2022/12/10 01:15:17;;;;;;;4.35;1.30;;;-1.60;92.00;;;;;;6153452;23;20002;-73
2022/12/10 01:17:43;;;;;;;2.47;1.02;;;-1.60;92.00;;;;;;6153074;23;20839;-73
2022/12/10 01:20:09;;;;;;;3.38;1.08;;;-1.60;92.00;;;;;;6153946;23;20096;-73
2022/12/10 01:22:35;;;;;;;2.97;1.20;;;-1.60;91.90;;;;;;6154089;23;20037;-74
2022/12/10 01:25:01;;;;;;;3.40;1.30;;;-1.60;92.00;;;;;;6153947;23;20443;-73
2022/12/10 01:27:27;;;;;;;3.08;1.20;;;-1.60;92.00;;;;;;6153908;23;20781;-73
2022/12/10 01:29:52;;;;;;;2.58;1.17;;;-1.60;92.40;;;;;;6152472;23;20005;-73
2022/12/10 01:32:18;;;;;;;3.70;1.50;;;-1.60;92.00;;;;;;6153949;23;20387;-73
2022/12/10 01:34:44;;;;;;;4.50;1.23;;;-1.60;92.00;;;;;;6152319;23;20032;-73
2022/12/10 01:37:10;;;;;;;3.80;1.30;;;-1.60;92.00;;;;;;6152248;23;20021;-73
2022/12/10 01:39:36;;;;;;;3.28;1.13;;;-1.60;92.00;;;;;;6152760;23;20017;-73
2022/12/10 01:42:02;;;;;;;2.28;1.20;;;-1.60;92.00;;;;;;6153803;23;20036;-73
2022/12/10 01:44:56;;;;;;;3.08;1.08;;;-1.60;92.10;;;;;;6153977;23;20002;-73
2022/12/10 01:47:22;;;;;;;2.58;1.05;;;-1.70;92.00;;;;;;6152142;23;20422;-73
2022/12/10 01:49:47;;;;;;;3.50;1.42;;;-1.70;92.00;;;;;;6152136;23;20014;-73
2022/12/10 01:52:13;;;;;;;3.28;1.45;;;-1.60;92.00;;;;;;6154278;23;20002;-73
2022/12/10 01:54:43;;;;;;;2.38;1.13;;;-1.60;92.00;;;;;;6154188;23;20092;-73
2022/12/10 01:57:14;;;;;;;2.75;1.02;;;-1.70;92.00;;;;;;6154115;23;20004;-73
2022/12/10 01:59:41;;;;;;;3.15;1.30;;;-1.70;92.00;;;;;;6153078;23;20096;-73
2022/12/10 02:02:35;;;;;;;3.83;1.60;;;-1.80;92.00;;;;;;6153820;23;20374;-73
2022/12/10 02:05:34;;;;;;;2.58;1.00;;;-1.70;92.10;;;;;;6176784;23;20399;-73
2022/12/10 02:08:10;;;;;;;2.83;1.02;;;-1.70;92.10;;;;;;6153935;23;20040;-73
2022/12/10 02:11:16;;;;;;;2.47;1.10;;;-1.70;92.00;;;;;;6153773;23;20021;-73
2022/12/10 02:13:57;;;;;;;2.97;0.98;;;-1.70;92.00;;;;;;6153905;23;20013;-73
2022/12/10 02:16:33;;;;;;;2.83;1.10;;;-1.70;92.00;;;;;;6153737;23;20342;-73
2022/12/10 02:19:15;;;;;;;3.65;1.38;;;-1.80;92.00;;;;;;6153979;23;20006;-73
2022/12/10 02:21:42;;;;;;;;;;;-1.80;92.00;;;;;;6154461;23;20008;-73
2022/12/10 02:24:12;;;;;;;2.60;1.00;;;-1.80;92.00;;;;;;6153604;23;20383;-73
2022/12/10 02:27:07;;;;;;;1.95;0.80;;;-1.80;92.00;;;;;;6154296;23;20024;-73
2022/12/10 02:29:35;;;;;;;2.20;0.95;;;-1.90;92.00;;;;;;6153088;23;20032;-73
2022/12/10 02:32:13;;;;;;;3.03;1.10;;;-1.90;92.00;;;;;;6152456;23;20009;-73
2022/12/10 02:34:43;;;;;;;2.65;0.98;;;-1.90;92.00;;;;;;6153510;23;20009;-73
2022/12/10 02:37:18;;;;;;;2.17;1.08;;;-1.80;92.10;;;;;;6153599;23;20009;-73
2022/12/10 02:39:49;;;;;;;2.95;1.10;;;-1.90;92.00;;;;;;6153669;23;20002;-73
2022/12/10 02:42:17;;;;;;;1.45;0.80;;;-1.90;92.10;;;;;;6153793;23;20005;-73
2022/12/10 02:44:45;;;;;;;2.15;1.05;;;-1.90;92.10;;;;;;6177394;23;20018;-73
2022/12/10 02:47:12;;;;;;;3.00;1.08;;;-1.90;92.10;;;;;;6153738;23;20005;-73
2022/12/10 02:49:40;;;;;;;2.53;0.90;;;-1.90;92.10;;;;;;6153543;23;20084;-73
2022/12/10 02:52:09;;;;;;;2.10;1.08;;;-1.90;92.10;;;;;;6177032;23;20092;-73
2022/12/10 02:54:40;;;;;;;3.42;1.10;;;-1.90;92.10;;;;;;6153701;23;20077;-73
2022/12/10 02:57:39;;;;;;;2.25;0.95;;;-1.90;92.10;;;;;;6154062;23;20014;-73
2022/12/10 03:00:21;;;;;;;3.30;1.17;;;-1.90;92.10;;;;;;6153384;23;20006;-73
2022/12/10 03:03:20;;;;;;;3.30;1.17;;;-1.90;92.10;;;;;;6153501;23;20434;-73
2022/12/10 03:05:57;;;;;;;2.63;1.17;;;-1.90;92.10;;;;;;6153543;23;20447;-73
2022/12/10 03:08:31;;;;;;;2.78;1.10;;;-2.00;92.10;;;;;;6176448;23;20009;-73
2022/12/10 03:11:10;;;;;;;2.33;1.10;;;-1.90;92.10;;;;;;6153916;23;20068;-73
2022/12/10 03:13:43;;;;;;;2.08;0.95;;;-2.00;92.10;;;;;;6153878;23;20002;-73
2022/12/10 03:16:10;;;;;;;2.53;1.00;;;-2.00;92.10;;;;;;6153713;23;19998;-73
2022/12/10 03:18:37;;;;;;;2.33;0.77;;;-1.90;92.10;;;;;;6153690;23;20002;-73
2022/12/10 03:21:05;;;;;;;4.10;1.30;;;-1.80;92.20;;;;;;6153422;23;20052;-73
2022/12/10 03:23:35;;;;;;;4.30;1.40;;;-1.90;92.10;;;;;;6153004;23;20106;-73
2022/12/10 03:26:03;;;;;;;3.28;1.00;;;-1.90;92.10;;;;;;6153847;23;20064;-73
2022/12/10 03:28:34;;;;;;;3.22;1.20;;;-2.00;92.10;;;;;;6153421;23;20010;-73
2022/12/10 03:31:01;;;;;;;2.83;1.05;;;-2.00;92.10;;;;;;6153374;23;20326;-73
2022/12/10 03:33:26;;;;;;;2.53;1.10;;;-2.00;92.10;;;;;;6153588;23;20054;-73
2022/12/10 03:35:52;;;;;;;3.72;1.23;;;-1.90;92.20;;;;;;6151698;23;20351;-73
2022/12/10 03:38:19;;;;;;;3.22;1.27;;;-1.90;92.20;;;;;;6153393;23;20002;-73
2022/12/10 03:40:44;;;;;;;3.13;1.20;;;-1.80;92.10;;;;;;6176596;23;20017;-73
2022/12/10 03:43:13;;;;;;;3.78;1.23;;;-1.80;92.10;;;;;;6154014;23;20033;-73
2022/12/10 03:45:40;;;;;;;3.22;1.27;;;-1.70;92.10;;;;;;6152330;23;20268;-73
2022/12/10 03:48:06;;;;;;;3.50;1.40;;;-1.80;92.00;;;;;;6154409;23;20055;-73
2022/12/10 03:50:31;;;;;;;3.47;1.17;;;-1.80;92.00;;;;;;6152369;23;19997;-73
2022/12/10 03:52:57;;;;;;;3.28;1.35;;;-1.70;92.00;;;;;;6153248;23;19997;-73
2022/12/10 03:55:23;;;;;;;3.80;1.40;;;-1.80;92.00;;;;;;6151818;23;20013;-73
2022/12/10 03:57:48;;;;;;;2.88;1.30;;;-1.80;91.90;;;;;;6151722;23;20040;-73
2022/12/10 04:00:14;;;;;;;3.78;1.35;;;-1.80;91.90;;;;;;6153196;23;20010;-74
2022/12/10 04:02:40;;;;;;;2.42;0.95;;;-1.90;92.00;;;;;;6153357;23;20307;-73
2022/12/10 04:05:07;;;;;;;4.13;1.30;;;-1.90;92.00;;;;;;6153890;23;20009;-73
2022/12/10 04:07:33;;;;;;;3.00;1.10;;;-1.90;92.00;;;;;;6153371;23;20017;-73
2022/12/10 04:09:59;;;;;;;3.90;1.33;;;-1.90;92.10;;;;;;6153334;23;20449;-73
2022/12/10 04:12:25;;;;;;;3.35;1.20;;;-1.90;92.10;;;;;;6151668;23;20081;-73
2022/12/10 04:17:33;;;;;;;3.53;1.23;;;-1.90;92.10;;;;;;6153275;23;20009;-73
2022/12/10 04:19:58;;;;;;;1.13;0.82;;;-1.90;92.10;;;;;;6153211;23;20835;-73
2022/12/10 04:27:41;;;;;;;3.22;1.20;;;-1.80;92.10;;;;;;6143948;23;20005;-73
2022/12/10 04:30:09;;;;;;;4.22;1.52;;;-1.80;92.10;;;;;;6151718;23;20307;-73
2022/12/10 04:32:34;;;;;;;5.05;1.60;;;-1.80;92.10;;;;;;6176335;23;20017;-73
2022/12/10 04:35:01;;;;;;;3.22;1.30;;;-1.70;92.10;;;;;;6153566;23;20036;-73
2022/12/10 04:37:27;;;;;;;1.88;0.90;;;-1.70;92.10;;;;;;6153303;23;20068;-73
2022/12/10 04:39:53;;;;;;;2.95;1.25;;;-1.70;92.00;;;;;;6151648;23;20025;-73
2022/12/10 04:42:20;;;;;;;3.10;1.23;;;-1.70;92.00;;;;;;6153180;23;20005;-73
2022/12/10 04:44:45;;;;;;;3.42;1.38;;;-1.60;92.00;;;;;;6153575;23;20308;-73
2022/12/10 04:47:11;;;;;;;4.43;1.40;;;-1.60;92.00;;;;;;6153199;23;20005;-73
2022/12/10 04:49:37;;;;;;;4.07;1.20;;;-1.60;92.00;;;;;;6153243;23;20085;-73
2022/12/10 04:52:05;;;;;;;3.63;1.13;;;-1.60;92.00;;;;;;6152775;23;20040;-73
2022/12/10 04:54:30;;;;;;;3.45;1.25;;;-1.60;92.00;;;;;;6153622;23;20001;-73
2022/12/10 04:56:56;;;;;;;3.83;1.65;;;-1.60;92.00;;;;;;6151310;23;20008;-73
2022/12/10 04:59:22;;;;;;;3.88;1.40;;;-1.60;92.00;;;;;;6152810;23;20010;-73
2022/12/10 05:01:48;;;;;;;2.72;1.35;;;-1.50;92.00;;;;;;6153291;23;20461;-73
2022/12/10 05:04:16;;;;;;;4.65;1.40;;;-1.50;92.00;;;;;;6151496;23;20012;-73
2022/12/10 05:06:42;;;;;;;3.55;1.33;;;-1.50;92.00;;;;;;6153583;23;20010;-72
2022/12/10 05:09:10;;;;;;;4.22;1.67;;;-1.50;91.90;;;;;;6153414;23;20041;-73
2022/12/10 05:11:36;;;;;;;4.57;1.60;;;-1.50;92.00;;;;;;6176197;23;20016;-73
2022/12/10 05:14:02;;;;;;;4.53;1.70;;;-1.50;91.90;;;;;;6153637;23;20005;-73
2022/12/10 05:16:31;;;;;;;3.08;1.50;;;-1.50;91.90;;;;;;6152132;23;20055;-73
2022/12/10 05:18:57;;;;;;;3.33;1.50;;;-1.40;92.00;;;;;;6152894;23;20006;-73
2022/12/10 05:23:27;;;;;;;6.10;2.17;;;-1.50;91.90;;;;;;6176092;23;20326;-73
2022/12/10 05:24:10;;;;;;;6.10;2.58;;;-1.40;91.90;;;;;;6151242;23;20013;-73
2022/12/10 05:26:36;;;;;;;6.47;2.42;;;-1.50;91.90;;;;;;6150915;23;20092;-73
2022/12/10 05:29:01;;;;;;;7.05;2.25;;;-1.50;91.90;;;;;;6151850;23;20034;-73
2022/12/10 05:31:29;;;;;;;7.05;2.47;;;-1.50;92.00;;;;;;6145817;23;20060;-73
2022/12/10 05:33:57;;;;;;;8.15;2.45;;;-1.50;92.00;;;;;;6151778;23;20013;-73
2022/12/10 05:36:25;;;;;;;5.75;2.03;;;-1.30;92.00;;;;;;6176244;23;20104;-73
2022/12/10 05:38:52;;;;;;;5.57;1.90;;;-1.40;92.00;;;;;;6153357;23;20036;-73
2022/12/10 05:41:21;;;;;;;7.38;2.70;;;-1.50;92.00;;;;;;6176684;23;20088;-73
2022/12/10 05:43:48;;;;;;;4.03;1.65;;;-1.40;92.10;;;;;;6152771;23;20044;-73
2022/12/10 05:46:18;;;;;;;6.70;2.38;;;-1.50;92.10;;;;;;6152566;23;20010;-73
2022/12/10 05:48:45;;;;;;;6.30;2.17;;;-1.50;92.10;;;;;;6151365;23;20382;-73
2022/12/10 05:51:13;;;;;;;6.30;1.92;;;-1.50;92.10;;;;;;6151861;23;20004;-73
2022/12/10 05:53:39;;;;;;;5.15;1.85;;;-1.50;92.10;;;;;;6153320;23;20028;-73
2022/12/10 05:56:09;;;;;;;6.60;2.08;;;-1.50;92.10;;;;;;6152558;23;20460;-73
2022/12/10 05:58:35;;;;;;;5.40;1.95;;;-1.50;92.20;;;;;;6153141;23;20060;-73
2022/12/10 06:01:06;;;;;;;5.75;2.20;;;-1.60;92.10;;;;;;6152522;23;20009;-73
2022/12/10 06:03:32;;;;;;;5.38;2.05;;;-1.50;92.20;;;;;;6153235;23;20006;-73
2022/12/10 06:05:57;;;;;;;4.70;1.70;;;-1.50;92.20;;;;;;6154335;23;20308;-73
2022/12/10 06:08:23;;;;;;;5.18;1.92;;;-1.50;92.20;;;;;;6154052;23;20005;-72
2022/12/10 06:10:48;;;;;;;6.25;2.45;;;-1.50;92.10;;;;;;6154857;23;20005;-73
2022/12/10 06:13:14;;;;;;;7.18;2.65;;;-1.50;92.10;;;;;;6154589;23;20016;-73
2022/12/10 06:15:41;;;;;;;6.22;2.28;;;-1.50;92.20;;;;;;6154035;23;20045;-73
2022/12/10 06:18:08;;;;;;;5.88;2.50;;;-1.70;92.30;;;;;;6154089;23;20006;-73
2022/12/10 06:20:37;;;;;;;6.50;2.45;;;-1.70;92.30;;;;;;6154746;23;20001;-73
2022/12/10 06:23:02;;;;;;;5.75;2.25;;;-1.70;92.30;;;;;;6128669;23;20013;-73
2022/12/10 06:25:28;;;;;;;5.70;1.88;;;-1.60;92.30;;;;;;6154054;23;20022;-73
2022/12/10 06:27:54;;;;;;;5.00;2.13;;;-1.60;92.30;;;;;;6152701;23;20001;-72
2022/12/10 06:30:19;;;;;;;5.90;2.30;;;-1.70;92.30;;;;;;6154098;23;20009;-73
2022/12/10 06:32:45;;;;;;;4.15;1.65;;;-1.60;92.30;;;;;;6153912;23;20010;-73
2022/12/10 06:35:11;;;;;;;5.00;1.73;;;-1.70;92.30;;;;;;6153891;23;20491;-73
2022/12/10 06:37:37;;;;;;;6.35;2.00;;;-1.60;92.30;;;;;;6152678;23;20001;-73
2022/12/10 06:40:03;;;;;;;4.78;2.05;;;-1.70;92.30;;;;;;6152336;23;20032;-73
2022/12/10 06:42:29;;;;;;;5.30;1.88;;;-1.60;92.40;;;;;;6153801;23;20006;-73
2022/12/10 06:44:54;;;;;;;5.50;2.25;;;-1.60;92.40;;;;;;6153649;23;20014;-73
2022/12/10 06:47:20;;;;;;;5.45;1.60;;;-1.60;92.40;;;;;;6154161;23;20005;-73
2022/12/10 06:49:45;;;;;;;5.18;1.92;;;-1.60;92.40;;;;;;6154038;23;20326;-73
2022/12/10 06:52:11;;;;;;;5.75;1.83;;;-1.60;92.30;;;;;;6153895;23;20009;-73
2022/12/10 06:54:37;;;;;;;6.28;2.13;;;-1.60;92.30;;;;;;6154434;23;20367;-73
2022/12/10 06:57:03;;;;;;;5.07;1.55;;;-1.60;92.40;;;;;;6154403;23;20020;-73
2022/12/10 06:59:28;;;;;;;5.57;1.80;;;-1.60;92.40;;;;;;6153886;23;20024;-73
2022/12/10 07:01:54;;;;;;;5.20;1.70;;;-1.60;92.40;;;;;;6140175;23;20047;-73
2022/12/10 07:04:20;;;;;;;4.82;1.60;;;-1.60;92.40;;;;;;6152214;23;20445;-73
2022/12/10 07:06:46;;;;;;;6.60;2.30;;;-1.60;92.50;;;;;;6153878;23;20013;-73
2022/12/10 07:09:11;;;;;;;4.72;1.58;;;-1.60;92.50;;;;;;6152806;23;20330;-73
2022/12/10 07:11:37;;;;;;;5.07;2.13;;;-1.60;92.40;;;;;;6154364;23;19998;-73
2022/12/10 07:14:03;;;;;;;5.38;1.92;;;-1.60;92.40;;;;;;6153588;23;20029;-73
2022/12/10 07:16:31;;;;;;;5.63;2.20;;;-1.60;92.40;;;;;;6154040;23;20009;-73
2022/12/10 07:18:58;;;;;;;8.43;2.63;;;-1.60;92.40;;;;;;6154395;23;20040;-73
2022/12/10 07:21:26;;;;;;;6.45;2.40;;;-1.70;92.40;;;;;;6153924;23;20009;-73
2022/12/10 07:23:55;;;;;;;5.88;1.95;;;-1.60;92.50;;;;;;6154111;23;20014;-73
2022/12/10 07:26:22;;;;;;;4.63;2.00;;;-1.70;92.50;;;;;;6153868;23;20017;-73
2022/12/10 07:28:47;;;;;;;5.05;2.00;;;-1.60;92.50;;;;;;6153581;23;20041;-73
2022/12/10 07:31:13;;;;;;;5.55;1.90;;;-1.70;92.50;;;;;;6152358;23;19998;-73
2022/12/10 07:33:39;;;;;;;4.28;1.77;;;-1.60;92.50;;;;;;6153609;23;20009;-74
2022/12/10 07:36:07;;;;;;;4.32;1.45;;;-1.60;92.50;;;;;;6153769;23;20009;-73
2022/12/10 07:38:33;;;;;;;3.05;1.35;;;-1.60;92.50;;;;;;6153869;23;20013;-73
2022/12/10 07:41:03;;;;;;;4.03;1.80;;;-1.50;92.50;;;;;;6153750;23;20009;-73
2022/12/10 07:43:28;;;;;;;4.53;1.42;;;-1.50;92.50;;;;;;6154499;23;20410;-73
2022/12/10 07:45:54;;;;;;;5.68;1.67;;;-1.50;92.50;;;;;;6153629;23;20036;-73
2022/12/10 07:48:20;;;;;;;5.10;1.55;;;-1.50;92.50;;;;;;6154306;23;20105;-73
2022/12/10 07:50:46;;;;;;;5.43;1.85;;;-1.50;92.40;;;;;;6154392;23;20002;-73
2022/12/10 07:53:11;;;;;;;6.63;1.73;;;-1.50;92.40;;;;;;6154304;23;20284;-73
2022/12/10 07:55:37;;;;;;;5.53;1.88;;;-1.50;92.40;;;;;;6126956;23;20438;-73
2022/12/10 07:58:03;;;;;;;7.07;2.17;;;-1.50;92.40;;;;;;6152143;23;20044;-73
2022/12/10 08:00:29;;;;;;;6.30;2.00;;;-1.50;92.40;;;;;;6153930;23;20441;-73
2022/12/10 08:02:54;;;;;;;6.38;1.83;;;-1.50;92.40;;;;;;6152091;23;20081;-73
2022/12/10 08:05:20;;;;;;;6.28;2.30;;;-1.50;92.40;;;;;;6151835;23;20128;-73
2022/12/10 08:07:45;;;;;;;5.60;2.05;;;-1.50;92.40;;;;;;6153738;23;20377;-73
2022/12/10 08:10:11;;;;;;;6.10;1.90;;;-1.30;92.40;;;;;;6154124;23;20076;-73
2022/12/10 08:12:37;;;;;;;5.93;2.13;;;-1.40;92.40;;;;;;6153358;23;20009;-73
2022/12/10 08:15:03;;;;;;;5.80;1.73;;;-1.40;92.40;;;;;;6153901;23;20006;-73
2022/12/10 08:17:28;;;;;;;5.55;1.90;;;-1.40;92.40;;;;;;6151909;23;20084;-73
2022/12/10 08:19:54;;;;;;;6.43;2.25;;;-1.40;92.40;;;;;;6151634;23;20319;-73
2022/12/10 08:22:20;;;;;;;8.25;2.47;;;-1.30;92.40;;;;;;6153474;23;20005;-73
2022/12/10 08:24:46;;;;;;;6.85;2.42;;;-1.10;92.40;;;;;;6153398;23;20001;-73
2022/12/10 08:27:12;;;;;;;8.02;2.38;;;-1.30;92.40;;;;;;6150954;23;20020;-73
2022/12/10 08:29:38;;;;;;;6.07;1.92;;;-1.30;92.40;;;;;;6152487;23;20044;-73
2022/12/10 08:32:03;;;;;;;5.57;2.10;;;-1.20;92.40;;;;;;6151745;23;20093;-73
2022/12/10 08:34:29;;;;;;;7.80;2.25;;;-1.20;92.40;;;;;;6153968;23;20029;-73
2022/12/10 08:36:55;;;;;;;7.35;2.85;;;-1.20;92.30;;;;;;6151720;23;20006;-73
2022/12/10 08:39:20;;;;;;;5.63;2.15;;;-1.30;92.30;;;;;;6153629;23;20032;-73
2022/12/10 08:41:46;;;;;;;5.45;2.03;;;-1.30;92.40;;;;;;6153655;23;20419;-73
2022/12/10 08:44:13;;;;;;;6.43;2.25;;;-1.20;92.40;;;;;;6151554;23;20016;-73
2022/12/10 08:46:39;;;;;;;5.80;2.20;;;-1.20;92.40;;;;;;6153474;23;20080;-73
2022/12/10 08:49:06;;;;;;;4.88;1.88;;;-1.10;92.40;;;;;;6176492;23;20497;-73
2022/12/10 08:51:32;;;;;;;5.40;1.85;;;-1.20;92.40;;;;;;6153933;23;20327;-73
2022/12/10 08:53:58;;;;;;;4.50;1.70;;;-1.20;92.40;;;;;;6153629;23;20085;-73
2022/12/10 08:56:24;;;;;;;4.70;1.95;;;-1.10;92.40;;;;;;6153577;23;20012;-73
2022/12/10 08:58:51;;;;;;;4.32;1.70;;;-1.10;92.40;;;;;;6151696;23;20156;-73
2022/12/10 09:01:17;;;;;;;4.57;1.60;;;-1.10;92.40;;;;;;6153637;23;20041;-73
2022/12/10 09:03:44;;;;;;;3.78;1.40;;;-1.10;92.40;;;;;;6153641;23;20036;-73
2022/12/10 09:06:13;;;;;;;5.68;1.67;;;-1.10;92.40;;;;;;6153442;23;20013;-73
2022/12/10 09:08:39;;;;;;;5.25;1.70;;;-1.00;92.50;;;;;;6153579;23;20006;-73
2022/12/10 09:11:08;;;;;;;4.93;1.60;;;-1.00;92.40;;;;;;6153031;23;20068;-73
2022/12/10 09:13:34;;;;;;;4.32;1.67;;;-1.00;92.70;;;;;;6151532;23;20033;-73
2022/12/10 09:15:59;;;;;;;4.43;1.75;;;-1.00;92.40;;;;;;6153478;23;20016;-73
2022/12/10 09:18:25;;;;;;;7.43;1.70;;;-1.00;92.40;;;;;;6152000;23;20009;-73
2022/12/10 09:20:51;;;;;;;4.07;1.60;;;-0.90;92.40;;;;;;6152279;23;20434;-72
2022/12/10 09:23:16;;;;;;;4.82;1.55;;;-1.00;92.40;;;;;;6127059;23;20052;-72
2022/12/10 09:25:42;;;;;;;4.68;1.33;;;-0.90;92.40;;;;;;6153617;23;20014;-71
2022/12/10 09:28:08;;;;;;;5.57;1.90;;;-1.00;92.40;;;;;;6148495;23;20001;-72
2022/12/10 09:30:34;;;;;;;5.10;1.67;;;-1.00;92.40;;;;;;6151108;23;20009;-73
2022/12/10 09:32:59;;;;;;;5.90;1.98;;;-0.90;92.40;;;;;;6152944;23;20028;-72
2022/12/10 09:35:25;;;;;;;7.22;2.13;;;-0.90;92.40;;;;;;6153719;23;20427;-72
2022/12/10 09:37:51;;;;;;;5.78;1.83;;;-0.90;92.40;;;;;;6153270;23;20009;-72
2022/12/10 09:40:21;;;;;;;5.68;2.05;;;-0.90;92.50;;;;;;6152648;23;20013;-73
2022/12/10 09:42:56;;;;;;;5.93;2.05;;;-0.80;92.50;;;;;;6154217;23;20014;-72
2022/12/10 09:45:35;;;;;;;6.43;1.88;;;-0.80;92.40;;;;;;6154259;23;20088;-72
2022/12/10 09:48:26;;;;;;;6.18;1.80;;;-0.80;92.50;;;;;;6154466;23;20009;-72
2022/12/10 09:51:10;;;;;;;6.07;1.92;;;-0.80;92.40;;;;;;6154348;23;20002;-72
2022/12/10 09:53:37;;;;;;;5.53;1.95;;;-0.70;92.40;;;;;;6154650;23;20429;-73
2022/12/10 09:56:04;;;;;;;6.40;2.15;;;-0.70;92.30;;;;;;6154645;23;20430;-72
2022/12/10 09:58:30;;;;;;;5.18;1.83;;;-0.70;92.40;;;;;;6152483;23;20009;-73
2022/12/10 10:01:00;;;;;;;4.70;1.88;;;-0.70;92.40;;;;;;6154759;23;20013;-72
2022/12/10 10:03:25;;;;;;;5.03;1.98;;;-0.70;92.40;;;;;;6154505;23;20037;-72
2022/12/10 10:05:53;;;;;;;4.85;1.83;;;-0.70;92.50;;;;;;6153261;23;20025;-72
2022/12/10 10:08:31;;;;;;;4.90;2.00;;;-0.70;92.50;;;;;;6154746;23;20033;-72
2022/12/10 10:10:59;;;;;;;4.90;2.20;;;-0.70;92.50;;;;;;6154600;23;20025;-72
2022/12/10 10:13:36;;;;;;;6.30;2.22;;;-0.60;92.50;;;;;;6154804;23;20314;-72
2022/12/10 10:16:18;;;;;;;6.63;2.28;;;-0.60;92.40;;;;;;6152924;23;20011;-72
2022/12/10 10:18:54;;;;;;;5.72;1.98;;;-0.70;92.40;;;;;;6154538;23;20428;-73
2022/12/10 10:21:28;;;;;;;7.63;2.35;;;-0.70;92.70;;;;;;6154246;23;20012;-72
2022/12/10 10:23:55;;;;;;;6.40;2.70;;;-0.60;92.40;;;;;;6154536;23;20442;-72
2022/12/10 10:26:23;;;;;;;6.20;2.53;;;-0.60;92.50;;;;;;6153867;23;21447;-72
2022/12/10 10:28:52;;;;;;;6.13;1.83;;;-0.70;92.50;;;;;;6153833;23;20028;-72
2022/12/10 10:31:21;;;;;;;9.13;2.78;;;-0.60;92.50;;;;;;6152615;23;19997;-72
2022/12/10 10:33:56;;;;;;;6.57;2.80;;;-0.50;92.50;;;;;;6153883;23;20005;-72
2022/12/10 10:36:24;;;;;;;6.82;2.58;;;-0.60;92.50;;;;;;6152366;23;20001;-72
2022/12/10 10:38:50;;;;;;;7.00;2.45;;;-0.50;92.50;;;;;;6154588;23;20418;-72
2022/12/10 10:41:15;;;;;;;5.40;2.20;;;-0.50;92.40;;;;;;6154476;23;20008;-72
2022/12/10 10:43:44;;;;;;;7.10;3.00;;;-0.50;92.50;;;;;;6154298;23;20008;-72
2022/12/10 10:46:15;;;;;;;5.28;2.33;;;-0.50;92.40;;;;;;6154109;23;20423;-72
2022/12/10 10:48:41;;;;;;;5.80;2.50;;;-0.50;92.50;;;;;;6152270;23;20431;-72
2022/12/10 10:51:16;;;;;;;7.00;2.63;;;-0.50;92.50;;;;;;6153851;23;20067;-72
2022/12/10 10:53:45;;;;;;;7.38;2.75;;;-0.50;92.50;;;;;;6153583;23;20037;-72
2022/12/10 10:56:20;;;;;;;8.68;3.05;;;-0.60;92.50;;;;;;6153608;23;20013;-73
2022/12/10 10:58:52;;;;;;;7.47;2.60;;;-0.60;92.80;;;;;;6154305;23;20007;-72
2022/12/10 11:01:19;;;;;;;7.30;2.83;;;-0.50;92.50;;;;;;6154449;23;20002;-72
2022/12/10 11:03:49;;;;;;;6.18;2.13;;;-0.60;92.50;;;;;;6153780;23;20009;-72
2022/12/10 11:06:14;;;;;;;5.35;2.10;;;-0.40;92.50;;;;;;6152638;23;20445;-73
2022/12/10 11:08:42;;;;;;;5.78;2.00;;;-0.40;92.50;;;;;;6151996;23;20059;-72
2022/12/10 11:11:40;;;;;;;6.22;2.35;;;-0.40;92.50;;;;;;6154185;23;20456;-72
2022/12/10 11:14:23;;;;;;;4.57;1.60;;;-0.40;92.50;;;;;;6153925;23;19998;-73
2022/12/10 11:16:48;;;;;;;6.88;2.30;;;-0.30;92.50;;;;;;6153804;23;20001;-72
2022/12/10 11:19:23;;;;;;;4.50;1.92;;;-0.30;92.50;;;;;;6153633;23;20040;-73
2022/12/10 11:21:49;;;;;;;6.32;2.20;;;-0.30;92.50;;;;;;6154329;23;20037;-72
2022/12/10 11:24:18;;;;;;;4.68;2.00;;;-0.20;92.50;;;;;;6152270;23;20015;-72
2022/12/10 11:26:57;;;;;;;6.15;2.20;;;-0.20;92.50;;;;;;6153859;23;20010;-73
2022/12/10 11:29:43;;;;;;;5.88;1.98;;;-0.20;92.40;;;;;;6153810;23;20418;-72
2022/12/10 11:32:33;;;;;;;4.80;1.88;;;-0.20;92.40;;;;;;6176441;23;20002;-73
2022/12/10 11:35:11;;;;;;;6.00;2.20;;;-0.20;92.40;;;;;;6153391;23;20088;-73
2022/12/10 11:38:16;;;;;;;7.82;2.40;;;-0.10;92.40;;;;;;6154212;23;20080;-73
2022/12/10 11:40:57;;;;;;;4.90;1.90;;;-0.10;92.40;;;;;;6153468;23;20017;-72
2022/12/10 11:43:37;;;;;;;4.75;1.75;;;0.00;92.50;;;;;;6154327;23;20009;-73
2022/12/10 11:46:29;;;;;;;4.45;1.85;;;-0.10;92.40;;;;;;6154028;23;20013;-72
2022/12/10 11:49:27;;;;;;;4.60;1.73;;;0.00;92.40;;;;;;6131668;23;20064;-72
2022/12/10 11:52:28;;;;;;;6.63;2.10;;;-0.10;92.40;;;;;;6153377;23;20056;-72
2022/12/10 11:55:09;;;;;;;4.95;1.92;;;0.00;92.50;;;;;;6153452;23;20010;-74
2022/12/10 11:57:58;;;;;;;6.27;2.10;;;-0.20;92.50;;;;;;6151955;23;20024;-73
2022/12/10 12:00:28;;;;;;;5.10;1.90;;;-0.20;92.50;;;;;;6153620;23;20005;-73
2022/12/10 12:03:17;;;;;;;6.35;2.80;;;-0.20;92.60;;;;;;6152904;23;20006;-73
2022/12/10 12:06:08;;;;;;;6.00;2.28;;;-0.20;92.60;;;;;;6177366;23;20370;-73
2022/12/10 12:09:07;;;;;;;5.35;2.00;;;-0.20;92.60;;;;;;6153288;23;20453;-73
2022/12/10 12:11:57;;;;;;;4.47;1.92;;;-0.10;92.60;;;;;;6152133;23;20002;-73
2022/12/10 12:14:29;;;;;;;6.43;2.20;;;-0.10;92.60;;;;;;6154106;23;20080;-73
2022/12/10 12:17:06;;;;;;;6.53;2.40;;;0.00;92.60;;;;;;6152621;23;20006;-73
2022/12/10 12:19:39;;;;;;;6.03;2.20;;;-0.10;92.50;;;;;;6153663;23;20151;-73
2022/12/10 12:22:25;;;;;;;6.65;2.25;;;-0.10;92.50;;;;;;6153703;23;20010;-73
2022/12/10 12:24:59;;;;;;;6.03;2.38;;;0.00;92.60;;;;;;6153899;23;20067;-73
2022/12/10 12:27:34;;;;;;;7.53;2.80;;;0.00;92.50;;;;;;6153604;23;20307;-73
2022/12/10 12:30:05;;;;;;;6.13;2.38;;;-0.10;92.50;;;;;;6153370;23;20159;-73
2022/12/10 12:32:42;;;;;;;6.28;2.40;;;-0.10;92.60;;;;;;6151698;23;20008;-73
2022/12/10 12:35:18;;;;;;;7.13;2.88;;;-0.10;92.50;;;;;;6176592;23;20013;-74
2022/12/10 12:37:56;;;;;;;7.30;2.92;;;-0.10;92.50;;;;;;6153693;23;20037;-74
2022/12/10 12:40:32;;;;;;;8.20;3.05;;;-0.20;92.60;;;;;;6153168;23;20021;-74
2022/12/10 12:43:03;;;;;;;7.63;2.50;;;-0.20;92.70;;;;;;6153282;23;20008;-74
2022/12/10 12:45:36;;;;;;;7.00;2.65;;;-0.10;92.60;;;;;;6153903;23;20280;-74
2022/12/10 12:48:19;;;;;;;6.55;2.65;;;-0.20;92.60;;;;;;6153222;23;20001;-74
2022/12/10 12:50:53;;;;;;;4.72;1.80;;;-0.20;92.60;;;;;;6153880;23;20073;-74
2022/12/10 12:53:22;;;;;;;5.43;2.03;;;-0.10;92.70;;;;;;6153576;23;20009;-74
2022/12/10 12:56:02;;;;;;;4.13;1.60;;;-0.10;92.70;;;;;;6151581;23;20005;-74
2022/12/10 12:58:44;;;;;;;5.28;2.20;;;0.00;92.70;;;;;;6152269;23;20056;-74
2022/12/10 13:01:25;;;;;;;4.10;1.63;;;0.00;92.70;;;;;;6153059;23;20025;-74
2022/12/10 13:03:51;;;;;;;6.30;1.77;;;0.00;92.70;;;;;;6153458;23;20014;-74
2022/12/10 13:06:24;;;;;;;4.25;1.63;;;0.00;92.60;;;;;;6153401;23;20550;-74
2022/12/10 13:09:13;;;;;;;3.85;1.45;;;0.00;92.60;;;;;;6152957;23;20010;-74
2022/12/10 13:12:06;;;;;;;3.97;1.58;;;0.00;92.60;;;;;;6151544;23;20449;-74